Time;durP1;ratioP1;P1;durP2;ratioP2;P2;SDS_P1;SDS_P2;PMS_P1;PMS_P2;Temp;Humidity;BMP_temperature;BMP_pressure;BME280_temperature;BME280_humidity;BME280_pressure;Samples;Min_cycle;Max_cycle;Signal;HPM_P1;HPM_P2
2022/10/26 00:00:00;;;;;;;4.97;4.47;;;19.40;93.70;;;19.37;69.59;99064.75;5051543;28;20062;-76
2022/10/26 00:02:26;;;;;;;6.47;4.72;;;19.40;93.70;;;19.37;69.61;99067.50;5048447;28;20063;-77
2022/10/26 00:04:52;;;;;;;5.57;4.60;;;19.40;93.70;;;19.36;69.52;99074.94;5082043;28;20447;-76
2022/10/26 00:07:18;;;;;;;4.75;4.18;;;19.40;93.80;;;19.37;70.89;99078.50;5053963;28;20052;-77
2022/10/26 00:09:44;;;;;;;4.32;3.92;;;19.40;93.90;;;19.38;71.37;99080.09;5045934;28;20041;-77
2022/10/26 00:12:10;;;;;;;7.82;4.90;;;19.40;94.00;;;19.36;70.34;99077.69;5064577;28;20036;-76
2022/10/26 00:14:36;;;;;;;6.78;4.75;;;19.40;93.80;;;19.37;69.79;99075.75;5063542;28;20039;-76
2022/10/26 00:17:02;;;;;;;6.13;4.63;;;19.40;93.70;;;19.36;69.70;99076.88;5061236;28;20037;-76
2022/10/26 00:19:28;;;;;;;6.60;4.68;;;19.40;93.70;;;19.34;69.51;99070.91;5034349;28;20040;-76
2022/10/26 00:21:54;;;;;;;6.55;4.57;;;19.40;93.60;;;19.36;70.28;99076.88;5047574;28;20044;-76
2022/10/26 00:24:20;;;;;;;7.75;4.63;;;19.40;93.80;;;19.37;70.55;99087.56;5082750;28;20573;-77
2022/10/26 00:26:47;;;;;;;6.20;4.82;;;19.40;94.00;;;19.35;71.10;99073.31;5067815;28;20050;-76
2022/10/26 00:29:12;;;;;;;8.15;4.95;;;19.40;94.00;;;19.35;70.19;99078.00;5054651;28;20045;-76
2022/10/26 00:31:39;;;;;;;6.90;4.82;;;19.40;93.80;;;19.35;69.59;99081.56;5069789;28;20044;-76
2022/10/26 00:34:05;;;;;;;4.95;4.07;;;19.40;93.70;;;19.30;69.84;99074.28;5063884;28;20746;-76
2022/10/26 00:36:32;;;;;;;5.35;4.60;;;19.40;93.70;;;19.35;69.53;99080.75;5065429;28;20033;-76
2022/10/26 00:38:58;;;;;;;6.90;5.00;;;19.40;93.70;;;19.34;70.58;99079.97;5054010;28;20081;-76
2022/10/26 00:41:28;;;;;;;5.90;4.35;;;19.40;93.90;;;19.34;70.73;99073.66;5084434;28;20051;-76
2022/10/26 00:43:54;;;;;;;4.85;4.38;;;19.40;94.00;;;19.30;70.88;99073.47;5049413;28;20040;-77
2022/10/26 00:46:36;;;;;;;5.88;4.55;;;19.40;93.90;;;19.31;69.98;99077.88;5061807;28;20048;-77
2022/10/26 00:49:15;;;;;;;7.57;5.57;;;19.40;93.80;;;19.32;69.60;99073.97;5072194;28;20481;-76
2022/10/26 00:51:44;;;;;;;6.05;4.55;;;19.40;93.80;;;19.33;69.47;99066.53;5066154;28;20119;-77
2022/10/26 00:54:17;;;;;;;6.13;4.82;;;19.40;93.70;;;19.34;70.21;99073.66;5037438;28;20445;-77
2022/10/26 00:56:44;;;;;;;8.43;5.03;;;19.40;93.90;;;19.32;70.71;99076.72;5048270;28;20054;-77
2022/10/26 00:59:11;;;;;;;5.85;3.95;;;19.40;93.90;;;19.29;71.10;99069.94;5050366;28;20044;-77
2022/10/26 01:01:39;;;;;;;5.97;4.15;;;19.40;94.00;;;19.33;69.98;99067.31;5036913;28;20040;-77
2022/10/26 01:04:05;;;;;;;8.38;4.65;;;19.40;93.80;;;19.33;69.59;99072.81;5039057;28;20422;-77
2022/10/26 01:06:32;;;;;;;5.45;4.15;;;19.40;93.80;;;19.30;69.43;99074.28;5080803;28;20036;-77
2022/10/26 01:08:58;;;;;;;5.80;4.97;;;19.40;93.70;;;19.31;69.49;99072.34;5048878;28;20468;-77
2022/10/26 01:11:24;;;;;;;8.40;4.00;;;19.40;93.70;;;19.30;70.63;99079.78;5063550;28;20044;-77
2022/10/26 01:13:51;;;;;;;5.15;4.65;;;19.30;93.80;;;19.30;71.02;99071.53;5079840;28;20107;-77
2022/10/26 01:16:41;;;;;;;4.80;4.18;;;19.40;94.00;;;19.29;70.61;99074.63;5067808;28;20044;-76
2022/10/26 01:19:40;;;;;;;8.10;4.80;;;19.40;93.80;;;19.30;69.86;99070.72;5083342;28;20064;-77
2022/10/26 01:22:28;;;;;;;6.22;4.55;;;19.40;93.70;;;19.29;69.69;99069.13;5057309;28;20093;-77
2022/10/26 01:25:11;;;;;;;5.82;4.18;;;19.40;93.70;;;19.33;69.29;99074.78;5066682;28;20662;-77
2022/10/26 01:27:44;;;;;;;6.18;4.22;;;19.40;93.70;;;19.29;70.67;99075.44;5078201;28;20036;-76
2022/10/26 01:30:17;;;;;;;5.05;4.45;;;19.30;93.90;;;19.31;70.60;99066.84;5065583;28;20121;-76
2022/10/26 01:33:12;;;;;;;4.93;3.80;;;19.30;93.80;;;19.30;69.99;99071.53;5068327;28;20047;-77
2022/10/26 01:35:58;;;;;;;6.70;4.97;;;19.40;93.70;;;19.28;69.70;99073.81;5066579;28;20047;-77
2022/10/26 01:38:54;;;;;;;6.55;4.32;;;19.40;93.60;;;19.29;69.46;99072.69;5079289;28;20040;-77
2022/10/26 01:41:30;;;;;;;5.05;4.25;;;19.40;93.60;;;19.31;69.43;99075.13;5066413;28;20047;-77
2022/10/26 01:44:04;;;;;;;7.07;4.90;;;19.30;93.60;;;19.26;70.53;99067.03;5066008;28;20387;-77
2022/10/26 01:46:39;;;;;;;4.65;4.07;;;19.30;93.90;;;19.30;70.73;99066.03;5064108;28;20123;-77
2022/10/26 01:49:08;;;;;;;5.30;4.45;;;19.30;93.90;;;19.29;69.74;99072.69;5062201;28;20515;-77
2022/10/26 01:51:34;;;;;;;7.22;4.38;;;19.30;93.70;;;19.28;69.52;99057.31;5048999;28;20067;-76
2022/10/26 01:54:01;;;;;;;5.20;4.45;;;19.30;93.60;;;19.27;69.01;99060.38;5046440;28;20457;-76
2022/10/26 01:56:29;;;;;;;5.82;4.50;;;19.30;93.60;;;19.28;69.11;99062.00;5048037;28;20036;-77
2022/10/26 01:59:29;;;;;;;6.47;4.75;;;19.30;93.60;;;19.29;69.85;99058.91;5050031;28;20062;-76
2022/10/26 02:02:07;;;;;;;4.78;4.03;;;19.30;93.80;;;19.29;70.42;99052.63;5069854;28;20044;-77
2022/10/26 02:05:18;;;;;;;6.07;4.85;;;19.30;93.90;;;19.24;70.23;99064.59;5075335;28;20135;-77
2022/10/26 02:07:56;;;;;;;5.93;4.55;;;19.30;93.80;;;19.25;69.44;99057.94;5011489;28;20042;-76
2022/10/26 02:10:56;;;;;;;5.63;4.18;;;19.30;93.70;;;19.24;69.34;99061.03;4993988;28;20046;-76
2022/10/26 02:13:44;;;;;;;5.72;4.68;;;19.30;93.60;;;19.22;69.38;99066.03;5053495;28;20251;-76
2022/10/26 02:16:36;;;;;;;8.10;4.38;;;19.30;93.60;;;19.18;70.94;99068.63;5059676;28;20036;-76
2022/10/26 02:19:23;;;;;;;6.35;4.60;;;19.30;93.90;;;19.23;70.70;99071.22;5054705;28;20037;-76
2022/10/26 02:21:53;;;;;;;6.63;4.05;;;19.30;93.90;;;19.22;69.89;99069.59;5078385;28;20038;-76
2022/10/26 02:24:19;;;;;;;4.65;3.70;;;19.30;93.80;;;19.21;69.41;99065.25;5048530;28;20052;-77
2022/10/26 02:26:46;;;;;;;6.28;4.50;;;19.20;93.60;;;19.21;69.19;99070.75;5048248;28;20040;-76
2022/10/26 02:29:15;;;;;;;5.60;4.18;;;19.20;93.60;;;19.23;69.06;99078.66;5064404;28;20044;-76
2022/10/26 02:31:41;;;;;;;5.05;4.40;;;19.20;93.60;;;19.19;70.25;99069.44;5050821;28;20469;-76
2022/10/26 02:34:10;;;;;;;5.65;4.25;;;19.20;93.80;;;19.14;71.19;99067.66;5038926;28;20055;-76
2022/10/26 02:36:38;;;;;;;4.65;4.15;;;19.20;93.90;;;19.18;70.72;99067.81;5051446;28;20819;-76
2022/10/26 02:39:04;;;;;;;6.90;4.80;;;19.20;93.80;;;19.18;70.04;99070.56;5063797;28;20048;-76
2022/10/26 02:41:30;;;;;;;5.80;4.68;;;19.20;93.70;;;19.18;69.34;99071.38;5053759;28;20047;-76
2022/10/26 02:44:04;;;;;;;7.28;4.72;;;19.20;93.60;;;19.19;69.09;99078.50;5056366;28;20064;-76
2022/10/26 02:46:30;;;;;;;5.22;3.90;;;19.20;93.60;;;19.17;69.54;99080.75;5065491;28;20120;-76
2022/10/26 02:48:56;;;;;;;4.72;4.15;;;19.20;93.70;;;19.18;70.58;99078.81;5050506;28;20127;-76
2022/10/26 02:52:03;;;;;;;7.07;4.68;;;19.20;93.90;;;19.15;70.47;99080.28;5067300;28;20498;-76
2022/10/26 02:54:32;;;;;;;7.03;4.68;;;19.20;93.90;;;19.14;70.10;99084.16;5073840;28;20042;-76
2022/10/26 02:57:10;;;;;;;6.72;4.55;;;19.20;93.70;;;19.13;69.50;99079.78;5068835;28;20035;-76
2022/10/26 02:59:37;;;;;;;6.03;4.50;;;19.10;93.70;;;19.11;69.39;99079.31;5058285;28;20043;-76
2022/10/26 03:02:03;;;;;;;5.47;4.47;;;19.10;93.70;;;19.11;69.38;99076.56;5036440;28;20038;-76
2022/10/26 03:04:33;;;;;;;4.03;3.65;;;19.10;93.70;;;19.12;70.93;99078.19;5054035;28;20083;-76
2022/10/26 03:07:02;;;;;;;5.40;4.53;;;19.20;94.00;;;19.12;70.44;99080.13;5055231;28;20036;-76
2022/10/26 03:09:28;;;;;;;4.72;4.32;;;19.20;93.90;;;19.13;70.04;99077.03;5060290;28;20040;-76
2022/10/26 03:11:54;;;;;;;6.43;4.80;;;19.20;93.80;;;19.10;69.99;99083.19;5082736;28;20044;-76
2022/10/26 03:14:20;;;;;;;6.30;4.75;;;19.10;93.70;;;19.10;69.41;99083.19;5081797;28;20050;-76
2022/10/26 03:16:46;;;;;;;7.50;4.85;;;19.10;93.60;;;19.09;69.40;99082.38;5045156;28;20042;-76
2022/10/26 03:19:12;;;;;;;5.93;4.35;;;19.10;93.70;;;19.06;70.07;99095.97;5062485;28;20044;-77
2022/10/26 03:21:41;;;;;;;5.00;4.38;;;19.00;93.70;;;19.10;70.58;99096.94;5054009;28;20040;-77
2022/10/26 03:24:08;;;;;;;8.50;4.80;;;19.10;93.90;;;19.07;70.83;99100.34;5049713;28;20052;-79
2022/10/26 03:26:34;;;;;;;6.05;4.47;;;19.10;93.80;;;19.09;69.77;99098.88;5065370;28;20047;-77
2022/10/26 03:29:00;;;;;;;5.53;4.45;;;19.10;93.70;;;19.06;69.59;99099.53;5054995;28;20048;-77
2022/10/26 03:31:26;;;;;;;5.63;4.63;;;19.10;93.70;;;19.06;69.44;99091.28;5082598;28;20093;-77
2022/10/26 03:33:52;;;;;;;5.20;4.53;;;19.10;93.70;;;19.07;68.87;99092.88;5082623;28;20036;-77
2022/10/26 03:36:18;;;;;;;4.93;4.43;;;19.10;93.60;;;19.09;70.32;99100.81;5084219;28;20121;-77
2022/10/26 03:38:44;;;;;;;6.13;4.40;;;19.10;93.80;;;19.08;70.56;99099.19;5079857;28;20039;-77
2022/10/26 03:41:10;;;;;;;5.85;4.93;;;19.10;93.80;;;19.03;70.52;99104.84;5080698;28;20044;-77
2022/10/26 03:43:36;;;;;;;7.07;4.72;;;19.10;93.70;;;19.06;69.90;99101.47;5066364;28;20036;-77
2022/10/26 03:46:02;;;;;;;6.53;5.00;;;19.10;93.70;;;19.06;69.30;99102.28;5049902;28;20510;-77
2022/10/26 03:48:28;;;;;;;5.90;4.22;;;19.10;93.60;;;19.05;69.15;99108.88;5049526;28;20044;-77
2022/10/26 03:50:58;;;;;;;6.45;4.53;;;19.00;93.60;;;19.06;69.38;99112.47;5082503;28;20036;-77
2022/10/26 03:53:25;;;;;;;5.40;4.40;;;19.00;93.60;;;19.03;68.90;99110.34;5049463;28;20054;-77
2022/10/26 03:55:51;;;;;;;5.43;4.75;;;19.00;93.60;;;19.06;68.10;99110.53;5063461;28;20041;-77
2022/10/26 03:58:17;;;;;;;5.82;4.90;;;19.10;93.40;;;19.02;67.47;99109.53;5065855;28;20047;-76
2022/10/26 04:00:43;;;;;;;5.45;4.07;;;19.10;93.30;;;18.97;67.51;99103.41;5052670;28;20043;-77
2022/10/26 04:03:09;;;;;;;6.68;4.88;;;19.00;93.20;;;19.02;67.98;99106.00;5049887;28;20040;-77
2022/10/26 04:05:35;;;;;;;5.13;4.55;;;19.00;93.40;;;19.01;68.71;99098.88;5068096;28;20076;-77
2022/10/26 04:08:04;;;;;;;7.05;5.28;;;19.00;93.50;;;19.00;69.30;99105.50;5064457;28;20479;-77
2022/10/26 04:10:30;;;;;;;6.60;4.32;;;19.00;93.60;;;19.03;67.14;99091.94;5049980;28;20036;-77
2022/10/26 04:12:59;;;;;;;5.45;4.28;;;19.10;93.30;;;19.03;66.74;99102.09;5050349;28;20542;-77
2022/10/26 04:15:25;;;;;;;4.95;4.13;;;19.10;93.10;;;18.97;66.06;99098.69;5051196;28;20127;-77
2022/10/26 04:17:59;;;;;;;4.70;4.20;;;19.10;93.00;;;19.01;66.43;99102.44;5081009;28;20372;-77
2022/10/26 04:20:25;;;;;;;5.22;4.03;;;19.10;93.10;;;18.99;67.91;99098.38;5051736;28;20081;-77
2022/10/26 04:23:01;;;;;;;7.35;5.32;;;19.00;93.30;;;18.94;68.14;99104.84;5062323;28;20064;-77
2022/10/26 04:25:28;;;;;;;5.43;4.45;;;19.00;93.40;;;18.97;67.66;99106.16;5032423;28;20120;-77
2022/10/26 04:27:54;;;;;;;5.35;4.47;;;19.00;93.30;;;19.00;66.33;99111.00;5048597;28;20383;-77
2022/10/26 04:30:21;;;;;;;6.00;4.60;;;19.00;93.10;;;18.93;66.06;99105.16;5049129;28;20072;-77
2022/10/26 04:32:47;;;;;;;6.13;5.05;;;19.00;93.00;;;18.94;65.87;99118.59;5056041;28;20051;-77
2022/10/26 04:35:13;;;;;;;6.35;4.60;;;19.00;93.00;;;18.98;66.39;99105.84;5062778;28;20040;-77
2022/10/26 04:37:39;;;;;;;5.60;4.57;;;19.00;93.00;;;18.97;67.28;99108.91;5063583;28;20047;-77
2022/10/26 04:40:08;;;;;;;5.75;4.40;;;19.00;93.40;;;18.97;67.40;99106.16;5082108;28;20042;-77
2022/10/26 04:42:46;;;;;;;7.18;4.88;;;19.00;93.40;;;18.95;66.62;99102.91;5048493;28;20074;-77
2022/10/26 04:45:14;;;;;;;5.05;4.20;;;19.00;93.20;;;18.92;66.06;99106.31;5080443;28;20499;-77
2022/10/26 04:47:41;;;;;;;5.68;4.82;;;19.00;93.00;;;18.90;65.94;99103.06;5052147;28;20060;-76
2022/10/26 04:50:08;;;;;;;5.40;4.25;;;19.00;93.00;;;18.88;65.74;99106.16;5040024;28;20109;-77
2022/10/26 04:52:34;;;;;;;6.63;4.55;;;19.00;92.90;;;18.95;66.42;99111.16;5046927;28;20432;-77
2022/10/26 04:55:04;;;;;;;5.25;4.75;;;19.00;93.20;;;18.94;66.71;99115.03;5046631;28;20498;-77
2022/10/26 04:57:34;;;;;;;5.45;4.55;;;19.00;93.20;;;18.95;66.43;99109.19;5068344;28;20071;-77
2022/10/26 05:00:01;;;;;;;5.82;5.05;;;18.90;93.20;;;18.90;65.30;99111.31;5024863;28;20381;-77
2022/10/26 05:02:27;;;;;;;6.55;4.80;;;19.00;93.00;;;18.90;65.41;99116.81;5034829;28;20474;-77
2022/10/26 05:04:54;;;;;;;5.85;4.68;;;19.00;93.00;;;18.91;64.84;99115.69;5052548;28;20044;-77
2022/10/26 05:07:20;;;;;;;6.40;4.85;;;19.00;92.80;;;18.84;65.41;99116.97;5063008;28;20572;-77
2022/10/26 05:09:46;;;;;;;5.28;4.78;;;18.90;92.90;;;18.93;65.87;99116.97;5063359;28;20096;-76
2022/10/26 05:12:12;;;;;;;6.03;5.10;;;18.90;93.10;;;18.88;66.44;99122.63;5064273;28;20091;-76
2022/10/26 05:14:38;;;;;;;6.85;4.93;;;18.90;93.20;;;18.89;65.40;99118.75;5067432;28;20044;-77
2022/10/26 05:17:04;;;;;;;5.70;4.22;;;18.90;93.00;;;18.92;64.79;99120.84;5054839;28;20554;-77
2022/10/26 05:19:30;;;;;;;6.45;4.72;;;19.00;92.90;;;18.89;64.38;99128.94;5060205;28;20040;-79
2022/10/26 05:21:56;;;;;;;5.82;4.53;;;18.90;92.70;;;18.87;64.34;99130.06;5046891;28;20040;-79
2022/10/26 05:24:22;;;;;;;5.75;4.85;;;18.90;92.70;;;18.85;65.22;99126.84;5059666;28;20075;-80
2022/10/26 05:26:48;;;;;;;6.65;4.03;;;18.90;92.90;;;18.92;65.68;99129.09;5044843;28;20376;-77
2022/10/26 05:29:14;;;;;;;7.10;4.85;;;18.90;93.00;;;18.89;65.44;99128.94;5061793;28;20036;-78
2022/10/26 05:31:43;;;;;;;5.47;4.93;;;18.90;92.90;;;18.90;64.66;99139.59;5064915;28;20041;-78
2022/10/26 05:34:09;;;;;;;5.93;5.03;;;18.90;92.80;;;18.90;64.31;99138.78;5046825;28;20042;-78
2022/10/26 05:36:36;;;;;;;5.60;4.28;;;18.90;92.70;;;18.85;63.97;99137.84;5047507;28;20527;-81
2022/10/26 05:39:02;;;;;;;5.93;4.70;;;18.90;92.60;;;18.87;63.90;99146.53;5032836;28;20096;-81
2022/10/26 05:41:28;;;;;;;5.05;4.53;;;18.90;92.70;;;18.88;64.85;99150.13;5046953;28;20049;-81
2022/10/26 05:43:54;;;;;;;5.53;4.85;;;18.90;92.90;;;18.88;65.63;99150.13;5032102;28;20040;-80
2022/10/26 05:46:21;;;;;;;6.07;4.72;;;18.90;93.00;;;18.91;64.74;99148.66;5036711;28;20415;-81
2022/10/26 05:48:47;;;;;;;8.25;4.80;;;18.90;92.90;;;18.94;63.58;99145.28;5022347;28;20053;-81
2022/10/26 05:51:14;;;;;;;6.82;4.65;;;18.90;92.60;;;18.90;63.99;99145.09;5041279;28;20498;-81
2022/10/26 05:53:41;;;;;;;6.55;5.57;;;18.90;92.60;;;18.89;64.18;99145.44;5039839;28;20040;-81
2022/10/26 05:56:31;;;;;;;7.63;4.65;;;18.90;92.70;;;18.92;64.04;99153.03;5028097;28;20050;-81
2022/10/26 05:58:58;;;;;;;6.50;5.20;;;18.90;92.90;;;18.92;63.95;99144.78;5049430;28;20380;-77
2022/10/26 06:01:33;;;;;;;4.60;3.97;;;18.80;92.90;;;18.91;64.15;99154.97;5055077;28;20127;-76
2022/10/26 06:04:12;;;;;;;5.32;4.45;;;18.80;92.90;;;18.92;65.06;99159.31;5076434;28;20040;-77
2022/10/26 06:06:42;;;;;;;6.43;4.82;;;18.90;93.10;;;18.95;65.10;99157.88;5048192;28;20033;-77
2022/10/26 06:09:10;;;;;;;7.47;4.47;;;18.80;93.10;;;18.91;65.08;99167.91;5050050;28;20517;-77
2022/10/26 06:11:36;;;;;;;5.25;4.15;;;18.80;93.00;;;18.94;64.45;99156.28;5049996;28;20036;-77
2022/10/26 06:14:03;;;;;;;7.15;5.53;;;18.90;93.00;;;18.91;64.57;99157.72;5083674;28;20605;-77
2022/10/26 06:16:38;;;;;;;7.68;4.50;;;18.80;92.90;;;18.96;64.52;99159.53;5062230;28;20099;-77
2022/10/26 06:19:35;;;;;;;6.68;4.97;;;18.80;92.90;;;18.96;64.79;99159.53;5060345;28;20052;-77
2022/10/26 06:22:03;;;;;;;8.40;4.47;;;18.80;92.90;;;18.95;65.02;99166.13;5080372;28;20075;-77
2022/10/26 06:24:35;;;;;;;6.85;5.03;;;18.90;93.10;;;18.98;65.19;99168.22;5076583;28;20154;-77
2022/10/26 06:27:20;;;;;;;;;;;18.90;93.10;;;19.02;64.29;99169.22;5062339;28;20037;-77
2022/10/26 06:29:58;;;;;;;7.25;4.88;;;18.90;92.90;;;18.97;64.31;99169.38;5073421;28;19955;-77
2022/10/26 06:32:24;;;;;;;6.25;4.65;;;18.90;92.90;;;18.99;64.00;99172.63;5078950;28;20415;-77
2022/10/26 06:34:53;;;;;;;9.40;4.55;;;18.90;92.90;;;18.98;64.05;99168.22;5047613;28;20042;-77
2022/10/26 06:37:19;;;;;;;7.82;4.60;;;18.90;92.90;;;19.00;64.75;99171.47;5041427;28;20056;-77
2022/10/26 06:39:46;;;;;;;9.40;4.38;;;18.90;93.10;;;19.03;64.56;99168.91;5049990;28;20215;-77
2022/10/26 06:42:13;;;;;;;8.30;4.47;;;18.90;93.10;;;18.99;64.50;99178.13;5064213;28;20032;-77
2022/10/26 06:44:39;;;;;;;5.43;4.60;;;18.90;92.90;;;19.01;64.30;99184.09;5044791;28;20044;-77
2022/10/26 06:47:15;;;;;;;5.20;3.92;;;18.90;92.90;;;19.02;63.86;99197.50;5065623;28;20052;-77
2022/10/26 06:50:11;;;;;;;5.95;5.05;;;18.90;92.90;;;19.03;63.78;99193.66;5053953;28;20123;-77
2022/10/26 06:52:41;;;;;;;7.13;4.72;;;18.90;92.90;;;19.02;64.50;99191.22;5065444;28;20363;-77
2022/10/26 06:55:15;;;;;;;7.90;4.80;;;18.90;93.00;;;19.02;64.77;99185.72;5038844;28;20045;-77
2022/10/26 06:57:42;;;;;;;5.28;4.05;;;19.00;93.00;;;19.00;64.35;99196.22;5064303;28;20435;-77
2022/10/26 07:00:24;;;;;;;6.72;4.35;;;19.00;93.00;;;19.05;64.07;99196.88;5051221;28;20399;-77
2022/10/26 07:02:50;;;;;;;5.93;4.43;;;18.90;92.90;;;19.07;63.64;99188.31;5048434;28;20592;-77
2022/10/26 07:05:16;;;;;;;7.18;4.20;;;19.00;92.90;;;19.06;63.63;99204.00;5060656;28;20127;-77
2022/10/26 07:07:44;;;;;;;5.07;3.78;;;19.00;92.90;;;19.09;63.81;99213.56;5044723;28;20467;-77
2022/10/26 07:10:11;;;;;;;4.47;4.07;;;19.00;93.00;;;19.06;64.25;99203.19;5063488;28;20529;-77
2022/10/26 07:12:37;;;;;;;5.78;4.45;;;19.00;93.00;;;19.08;64.26;99201.75;5046324;28;20123;-77
2022/10/26 07:15:04;;;;;;;5.07;4.10;;;19.00;93.00;;;19.11;63.54;99203.06;5053387;28;20040;-76
2022/10/26 07:17:31;;;;;;;5.32;4.30;;;19.00;92.90;;;19.08;63.43;99200.91;5053194;28;20047;-77
2022/10/26 07:19:57;;;;;;;5.32;4.15;;;19.00;92.80;;;19.09;63.41;99213.56;5046144;28;20377;-76
2022/10/26 07:22:24;;;;;;;5.50;4.53;;;19.00;92.80;;;19.07;63.42;99216.59;5062316;28;20051;-77
2022/10/26 07:24:50;;;;;;;5.35;4.18;;;19.00;93.10;;;19.08;63.72;99215.50;5077658;28;20411;-77
2022/10/26 07:27:20;;;;;;;5.60;4.50;;;19.00;92.90;;;19.13;63.74;99209.00;5081457;28;20116;-77
2022/10/26 07:29:46;;;;;;;6.05;4.13;;;19.00;92.90;;;19.12;63.64;99215.66;5048583;28;20778;-77
2022/10/26 07:32:12;;;;;;;4.80;3.90;;;19.10;92.90;;;19.11;63.27;99216.81;5052729;28;20100;-77
2022/10/26 07:34:38;;;;;;;6.15;4.32;;;19.10;92.80;;;19.09;63.27;99225.34;5050639;28;20040;-77
2022/10/26 07:37:04;;;;;;;6.97;5.78;;;19.00;92.70;;;19.11;63.10;99222.28;5049551;28;20502;-77
2022/10/26 07:39:31;;;;;;;6.05;5.30;;;19.00;92.70;;;19.10;63.10;99223.41;5038813;28;20036;-77
2022/10/26 07:41:57;;;;;;;5.18;3.97;;;19.00;92.70;;;19.11;63.48;99225.03;5051213;28;20043;-77
2022/10/26 07:44:24;;;;;;;7.60;5.47;;;19.00;92.80;;;19.11;63.59;99227.78;5062147;28;20385;-77
2022/10/26 07:46:50;;;;;;;5.65;4.20;;;19.10;92.80;;;19.10;63.42;99226.16;5058791;28;20393;-77
2022/10/26 07:49:17;;;;;;;7.03;4.35;;;19.10;92.80;;;19.13;63.17;99222.75;5029429;28;20040;-77
2022/10/26 07:51:43;;;;;;;4.95;3.95;;;19.10;92.70;;;19.15;62.73;99212.25;5083812;28;20115;-77
2022/10/26 07:54:09;;;;;;;6.00;4.97;;;19.10;92.70;;;19.13;62.78;99219.22;5040970;28;20040;-77
2022/10/26 07:56:35;;;;;;;4.88;4.05;;;19.00;92.60;;;19.13;63.22;99214.50;5046088;28;20042;-77
2022/10/26 07:59:02;;;;;;;6.40;4.38;;;19.10;92.70;;;19.16;63.05;99213.91;5062776;28;20140;-77
2022/10/26 08:01:27;;;;;;;7.53;5.10;;;19.10;92.80;;;19.17;63.17;99214.69;5043567;28;20047;-77
2022/10/26 08:03:54;;;;;;;6.13;4.03;;;19.20;92.80;;;19.18;62.92;99208.06;5075559;28;20100;-77
2022/10/26 08:06:21;;;;;;;6.32;4.00;;;19.20;92.60;;;19.18;62.55;99210.81;5043029;28;20370;-77
2022/10/26 08:08:47;;;;;;;5.47;4.55;;;19.20;92.60;;;19.16;62.56;99213.91;5046937;28;20159;-77
2022/10/26 08:11:14;;;;;;;5.35;4.82;;;19.10;92.60;;;19.19;62.70;99216.00;5056502;28;20082;-77
2022/10/26 08:13:40;;;;;;;5.88;4.13;;;19.20;92.60;;;19.20;62.75;99208.56;5062895;28;20040;-77
2022/10/26 08:16:06;;;;;;;4.47;3.70;;;19.20;92.70;;;19.22;62.82;99207.09;5079612;28;20495;-77
2022/10/26 08:18:33;;;;;;;6.78;4.63;;;19.20;92.60;;;19.23;62.66;99203.25;5060597;28;20052;-77
2022/10/26 08:21:04;;;;;;;5.95;4.40;;;19.20;92.60;;;19.23;62.58;99196.91;5075914;28;20097;-77
2022/10/26 08:23:31;;;;;;;7.97;4.70;;;19.20;92.50;;;19.22;62.46;99196.09;5050060;28;20499;-77
2022/10/26 08:26:02;;;;;;;4.57;4.18;;;19.20;92.50;;;19.23;62.16;99194.16;5037315;28;20035;-77
2022/10/26 08:28:28;;;;;;;5.07;4.13;;;19.20;92.50;;;19.25;62.34;99202.91;5062225;28;20079;-77
2022/10/26 08:30:54;;;;;;;5.20;4.70;;;19.20;92.60;;;19.23;62.71;99203.25;5055514;28;20067;-77
2022/10/26 08:33:24;;;;;;;6.13;4.40;;;19.20;92.60;;;19.22;62.64;99201.59;5030240;28;20559;-77
2022/10/26 08:35:57;;;;;;;4.72;3.60;;;19.30;92.60;;;19.25;62.42;99200.16;5080134;28;20384;-77
2022/10/26 08:38:23;;;;;;;4.97;4.30;;;19.30;92.50;;;19.25;62.32;99205.66;5062220;28;20068;-77
2022/10/26 08:40:49;;;;;;;5.28;4.03;;;19.30;92.40;;;19.26;62.06;99201.78;5073450;28;20040;-77
2022/10/26 08:44:05;;;;;;;4.78;4.38;;;19.30;92.40;;;19.27;62.23;99204.19;5043757;28;20045;-77
2022/10/26 08:46:38;;;;;;;5.95;4.07;;;19.30;92.40;;;19.28;62.33;99199.50;5019346;28;1162155;-77
2022/10/26 08:49:37;;;;;;;7.05;4.28;;;19.30;92.50;;;19.30;62.34;99203.53;5045870;28;20132;-77
2022/10/26 08:52:03;;;;;;;5.90;4.18;;;19.30;92.50;;;19.29;62.08;99192.88;5041505;28;20040;-77
2022/10/26 08:54:34;;;;;;;5.47;4.20;;;19.30;92.40;;;19.30;62.01;99189.00;5045501;28;20069;-77
2022/10/26 08:57:02;;;;;;;4.38;3.72;;;19.30;92.40;;;19.30;62.10;99195.28;5041985;28;20091;-77
2022/10/26 08:59:51;;;;;;;5.32;4.25;;;19.40;92.30;;;19.30;61.99;99192.53;5041960;28;20127;-77
2022/10/26 09:02:17;;;;;;;5.88;4.35;;;19.40;92.30;;;19.36;62.22;99195.97;5040693;28;20549;-77
2022/10/26 09:04:43;;;;;;;4.20;3.80;;;19.40;92.50;;;19.36;62.10;99200.63;5028555;28;20131;-77
2022/10/26 09:07:56;;;;;;;4.28;3.85;;;19.40;92.50;;;19.35;62.19;99196.28;5039694;28;20542;-77
2022/10/26 09:10:54;;;;;;;6.53;4.00;;;19.40;92.40;;;19.38;61.75;99195.63;5059613;28;20074;-77
2022/10/26 09:13:23;;;;;;;7.13;4.38;;;19.40;92.30;;;19.36;61.65;99195.97;4969341;28;20470;-77
2022/10/26 09:16:13;;;;;;;4.93;4.53;;;19.40;92.30;;;19.37;61.62;99196.78;5056578;28;20068;-77
2022/10/26 09:19:16;;;;;;;5.78;4.63;;;19.40;92.30;;;19.40;61.87;99194.19;5043783;28;20041;-77
2022/10/26 09:21:46;;;;;;;5.18;4.35;;;19.50;92.40;;;19.41;61.85;99192.22;5056903;28;20043;-77
2022/10/26 09:24:15;;;;;;;4.95;4.20;;;19.50;92.40;;;19.42;61.51;99199.38;5046794;28;20384;-77
2022/10/26 09:26:57;;;;;;;7.40;4.10;;;19.50;92.40;;;19.41;61.51;99194.97;5008204;28;20062;-77
2022/10/26 09:29:28;;;;;;;;;;;19.50;92.30;;;19.43;61.43;99196.28;5042248;28;20049;-77
2022/10/26 09:31:55;;;;;;;5.60;4.43;;;19.50;92.30;;;19.45;61.01;99196.78;5037695;28;20357;-77
2022/10/26 09:34:30;;;;;;;4.88;3.50;;;19.50;92.30;;;19.45;61.32;99194.03;5027466;28;20408;-77
2022/10/26 09:36:56;;;;;;;5.00;4.15;;;19.50;92.40;;;19.47;61.24;99202.75;5026445;28;20090;-77
2022/10/26 09:39:48;;;;;;;5.63;4.30;;;19.60;92.30;;;19.46;61.13;99200.31;5040070;28;20496;-77
2022/10/26 09:42:39;;;;;;;5.60;3.80;;;19.60;92.30;;;19.46;61.21;99203.91;5050278;28;20556;-77
2022/10/26 09:45:15;;;;;;;4.47;3.92;;;19.50;92.20;;;19.49;60.87;99205.22;5042988;28;20049;-77
2022/10/26 09:47:51;;;;;;;3.97;3.53;;;19.60;92.20;;;19.50;60.76;99206.81;5012498;28;20657;-77
2022/10/26 09:50:34;;;;;;;4.80;3.90;;;19.60;92.20;;;19.49;61.09;99205.22;5027212;28;20041;-77
2022/10/26 09:53:01;;;;;;;4.88;3.85;;;19.60;92.20;;;19.52;60.96;99204.56;5013783;28;20587;-77
2022/10/26 09:55:29;;;;;;;5.53;4.32;;;19.60;92.30;;;19.51;60.98;99213.91;5040453;28;20508;-77
2022/10/26 09:57:58;;;;;;;3.58;3.20;;;19.60;92.20;;;19.53;60.65;99212.47;5025677;28;20557;-77
2022/10/26 10:00:25;;;;;;;6.13;4.53;;;19.60;92.10;;;19.55;60.50;99214.91;5026830;28;20484;-77
2022/10/26 10:02:53;;;;;;;6.00;3.88;;;19.70;92.10;;;19.56;60.48;99202.75;5020732;28;20046;-77
2022/10/26 10:05:29;;;;;;;3.88;3.47;;;19.60;92.10;;;19.57;60.52;99209.91;5037849;28;20123;-77
2022/10/26 10:08:24;;;;;;;4.13;3.65;;;19.70;92.10;;;19.58;60.65;99207.94;5043580;28;20047;-77
2022/10/26 10:10:59;;;;;;;5.88;3.67;;;19.60;92.10;;;19.59;60.59;99202.13;5017509;28;20130;-77
2022/10/26 10:13:29;;;;;;;5.63;4.07;;;19.70;92.10;;;19.60;60.20;99205.69;5054407;28;20051;-77
2022/10/26 10:16:21;;;;;;;4.45;3.72;;;19.70;92.00;;;19.63;60.17;99205.03;5028344;28;20109;-77
2022/10/26 10:18:58;;;;;;;4.38;3.78;;;19.70;92.00;;;19.61;60.08;99208.09;5029700;28;20096;-77
2022/10/26 10:21:34;;;;;;;4.00;3.60;;;19.70;92.00;;;19.64;59.90;99201.97;5027220;28;20051;-77
2022/10/26 10:24:01;;;;;;;5.65;3.22;;;19.70;92.00;;;19.64;60.04;99201.97;5044698;28;20047;-77
2022/10/26 10:26:27;;;;;;;3.92;3.53;;;19.80;92.00;;;19.65;60.21;99198.06;5021663;28;20060;-77
2022/10/26 10:28:59;;;;;;;4.15;3.72;;;19.80;92.00;;;19.68;59.86;99202.94;5025129;28;20090;-77
2022/10/26 10:31:32;;;;;;;3.97;3.50;;;19.80;92.00;;;19.66;59.84;99194.19;5030345;28;20045;-77
2022/10/26 10:33:59;;;;;;;4.18;3.35;;;19.80;91.90;;;19.69;59.70;99196.34;5026624;28;20542;-77
2022/10/26 10:36:29;;;;;;;6.25;3.45;;;19.80;91.90;;;19.70;59.50;99199.88;5023871;28;20078;-77